Time;durP1;ratioP1;P1;durP2;ratioP2;P2;SDS_P1;SDS_P2;PMS_P1;PMS_P2;Temp;Humidity;BMP_temperature;BMP_pressure;BME280_temperature;BME280_humidity;BME280_pressure;Samples;Min_cycle;Max_cycle;Signal;HPM_P1;HPM_P2
2023/05/16 00:00:16;;;;;;;67.63;50.17;;;16.60;77.10;;;;;;4966660;28;89379;-71
2023/05/16 00:02:42;;;;;;;68.75;50.70;;;16.60;77.70;;;;;;4964009;28;91729;-72
2023/05/16 00:05:09;;;;;;;66.75;50.13;;;16.50;77.10;;;;;;4961863;28;89326;-75
2023/05/16 00:07:35;;;;;;;69.88;50.08;;;16.50;77.00;;;;;;4968476;28;88625;-75
2023/05/16 00:10:01;;;;;;;66.75;50.13;;;16.50;77.00;;;;;;4976982;28;89646;-71
2023/05/16 00:12:28;;;;;;;65.47;49.83;;;16.50;77.00;;;;;;4978378;28;89303;-68
2023/05/16 00:14:54;;;;;;;65.00;49.80;;;16.50;76.90;;;;;;4970040;28;89614;-71
2023/05/16 00:17:20;;;;;;;66.03;49.92;;;16.50;77.00;;;;;;4969507;28;91351;-74
2023/05/16 00:19:47;;;;;;;66.10;50.03;;;16.50;76.90;;;;;;4990977;28;89425;-69
2023/05/16 00:22:14;;;;;;;64.43;49.60;;;16.40;76.90;;;;;;4985675;28;90972;-71
2023/05/16 00:24:40;;;;;;;66.25;49.78;;;16.40;77.10;;;;;;4981079;28;89852;-71
2023/05/16 00:27:06;;;;;;;65.38;49.63;;;16.40;77.00;;;;;;4983100;28;89455;-70
2023/05/16 00:29:35;;;;;;;65.60;50.03;;;16.40;77.00;;;;;;4980538;28;89791;-71
2023/05/16 00:32:01;;;;;;;64.72;49.67;;;16.40;77.00;;;;;;4985941;28;88868;-70
2023/05/16 00:34:26;;;;;;;65.22;49.67;;;16.40;77.80;;;;;;4989828;28;89170;-70
2023/05/16 00:36:52;;;;;;;69.60;50.17;;;16.40;76.80;;;;;;4983562;28;89094;-70
2023/05/16 00:39:18;;;;;;;64.45;49.58;;;16.30;76.90;;;;;;4989156;28;93365;-71
2023/05/16 00:41:45;;;;;;;65.85;49.78;;;16.30;76.80;;;;;;4987619;28;89048;-70
2023/05/16 00:44:10;;;;;;;67.18;50.40;;;16.30;76.90;;;;;;4990911;28;90219;-71
2023/05/16 00:46:36;;;;;;;65.97;50.15;;;16.30;76.90;;;;;;4990101;28;90343;-70
2023/05/16 00:49:02;;;;;;;65.55;49.97;;;16.30;76.80;;;;;;4988357;28;88844;-68
2023/05/16 00:51:28;;;;;;;65.45;49.78;;;16.30;76.80;;;;;;4988778;28;90112;-69
2023/05/16 00:53:55;;;;;;;65.70;50.10;;;16.30;76.90;;;;;;4984574;28;90148;-70
2023/05/16 00:56:21;;;;;;;65.78;49.92;;;16.30;76.90;;;;;;4991283;28;89087;-72
2023/05/16 00:58:47;;;;;;;65.78;49.42;;;16.20;76.90;;;;;;4986457;28;89008;-71
2023/05/16 01:01:13;;;;;;;65.78;50.50;;;16.20;76.80;;;;;;4968041;22;91047;-54
2023/05/16 01:03:39;;;;;;;66.45;50.28;;;16.20;76.90;;;;;;4949255;28;89129;-53
2023/05/16 01:06:05;;;;;;;66.72;50.35;;;16.20;76.90;;;;;;4940402;28;89871;-54
2023/05/16 01:08:31;;;;;;;64.65;50.85;;;16.20;76.80;;;;;;4945280;28;89556;-52
2023/05/16 01:11:21;;;;;;;67.10;50.70;;;16.20;76.80;;;;;;4943265;28;92679;-53
2023/05/16 01:13:46;;;;;;;68.35;50.83;;;16.20;76.80;;;;;;4947560;28;91011;-54
2023/05/16 01:16:23;;;;;;;68.18;50.45;;;16.20;76.80;;;;;;4954164;28;89998;-46
2023/05/16 01:19:19;;;;;;;65.32;50.65;;;16.20;76.80;;;;;;4952429;28;90054;-49
2023/05/16 01:21:58;;;;;;;66.80;50.20;;;16.10;76.90;;;;;;4953715;28;90201;-47
2023/05/16 01:25:03;;;;;;;64.97;50.30;;;16.10;76.80;;;;;;4951194;28;90306;-44
2023/05/16 01:27:30;;;;;;;64.60;50.05;;;16.10;76.80;;;;;;4948952;28;90419;-53
2023/05/16 01:29:56;;;;;;;65.47;50.40;;;16.10;77.40;;;;;;4949901;28;89424;-55
2023/05/16 01:32:21;;;;;;;65.75;50.25;;;16.10;76.70;;;;;;4947812;28;91174;-51
2023/05/16 01:34:50;;;;;;;65.90;49.95;;;16.10;76.80;;;;;;4954060;28;90510;-54
2023/05/16 01:37:23;;;;;;;67.05;50.53;;;16.10;76.70;;;;;;4949802;28;91284;-50
2023/05/16 01:40:14;;;;;;;65.18;50.38;;;16.10;76.80;;;;;;4964182;28;89398;-55
2023/05/16 01:42:45;;;;;;;67.93;50.15;;;16.10;76.80;;;;;;4947605;28;89673;-51
2023/05/16 01:45:25;;;;;;;64.82;50.33;;;16.00;76.80;;;;;;4948693;28;90433;-55
2023/05/16 01:48:06;;;;;;;64.28;50.22;;;16.00;76.70;;;;;;4948325;28;89618;-53
2023/05/16 01:50:34;;;;;;;66.60;50.13;;;16.00;76.70;;;;;;4951811;28;91004;-52
2023/05/16 01:53:08;;;;;;;66.40;50.45;;;16.00;76.70;;;;;;4993745;22;90599;-84
2023/05/16 01:55:50;;;;;;;66.82;50.63;;;16.00;76.70;;;;;;4969175;28;91931;-83
2023/05/16 01:58:19;;;;;;;64.90;50.38;;;16.00;76.70;;;;;;4968073;28;88730;-82
2023/05/16 02:00:44;;;;;;;66.82;50.25;;;15.90;76.60;;;;;;4976195;28;90123;-85
2023/05/16 02:03:10;;;;;;;65.70;50.38;;;16.00;76.70;;;;;;4970382;28;93881;-83
2023/05/16 02:05:36;;;;;;;66.57;50.05;;;16.00;76.60;;;;;;4966514;28;93947;-82
2023/05/16 02:08:02;;;;;;;65.47;49.97;;;16.00;76.60;;;;;;4959085;28;89179;-81
2023/05/16 02:10:28;;;;;;;64.35;49.97;;;15.90;76.50;;;;;;4946757;28;89073;-83
2023/05/16 02:12:54;;;;;;;65.28;50.10;;;15.90;76.50;;;;;;4951353;28;93159;-83
2023/05/16 02:15:20;;;;;;;63.95;50.05;;;15.90;76.50;;;;;;4944033;28;91904;-82
2023/05/16 02:17:46;;;;;;;66.32;50.45;;;15.90;76.60;;;;;;4948305;28;89703;-82
2023/05/16 02:20:12;;;;;;;66.38;50.08;;;15.90;76.50;;;;;;4946990;28;88179;-85
2023/05/16 02:22:38;;;;;;;64.32;49.83;;;15.90;76.50;;;;;;4952368;28;94128;-83
2023/05/16 02:25:05;;;;;;;64.88;50.55;;;15.90;76.50;;;;;;4946172;28;89823;-83
2023/05/16 02:27:31;;;;;;;68.13;50.45;;;15.90;76.40;;;;;;4953255;28;90192;-82
2023/05/16 02:29:56;;;;;;;64.13;49.95;;;15.90;76.50;;;;;;4950655;28;89174;-82
2023/05/16 02:32:22;;;;;;;64.55;49.97;;;15.90;77.20;;;;;;4948890;28;93019;-82
2023/05/16 02:34:48;;;;;;;65.35;50.10;;;15.80;76.40;;;;;;4953956;28;93199;-82
2023/05/16 02:37:14;;;;;;;66.30;50.10;;;15.80;76.50;;;;;;4951156;28;89566;-82
2023/05/16 02:39:40;;;;;;;64.68;50.17;;;15.80;76.40;;;;;;4939978;28;89778;-85
2023/05/16 02:42:06;;;;;;;63.88;49.88;;;15.80;76.40;;;;;;4940279;28;92639;-83
2023/05/16 02:44:32;;;;;;;66.57;49.70;;;15.80;76.50;;;;;;4949771;28;93213;-82
2023/05/16 02:46:58;;;;;;;65.50;50.00;;;15.80;76.50;;;;;;4947391;28;89040;-83
2023/05/16 02:49:24;;;;;;;64.30;50.33;;;15.80;76.50;;;;;;4947704;28;89205;-83
2023/05/16 02:51:50;;;;;;;64.38;49.92;;;15.80;76.50;;;;;;4956888;28;93620;-82
2023/05/16 02:54:16;;;;;;;65.63;49.58;;;15.80;76.50;;;;;;4942264;28;93450;-82
2023/05/16 02:56:42;;;;;;;64.25;50.03;;;15.80;76.50;;;;;;4948276;28;89356;-83
2023/05/16 02:59:08;;;;;;;64.18;50.38;;;15.80;76.50;;;;;;4944995;28;89906;-82
2023/05/16 03:01:33;;;;;;;64.10;49.72;;;15.80;76.40;;;;;;4946247;28;90223;-82
2023/05/16 03:03:59;;;;;;;63.95;49.40;;;15.70;76.40;;;;;;4947925;28;92129;-82
2023/05/16 03:06:25;;;;;;;64.00;50.22;;;15.70;76.40;;;;;;4946036;28;89800;-81
2023/05/16 03:08:50;;;;;;;63.53;49.67;;;15.70;76.40;;;;;;4950120;28;88162;-83
2023/05/16 03:11:20;;;;;;;67.15;49.65;;;15.70;76.40;;;;;;4950111;28;92970;-82
2023/05/16 03:13:46;;;;;;;64.22;49.50;;;15.70;76.40;;;;;;4951387;28;93262;-82
2023/05/16 03:16:12;;;;;;;63.67;49.33;;;15.70;76.30;;;;;;4944521;28;90291;-83
2023/05/16 03:18:37;;;;;;;64.80;49.60;;;15.70;76.30;;;;;;4943210;28;88856;-83
2023/05/16 03:21:03;;;;;;;62.78;49.63;;;15.60;76.30;;;;;;4941100;28;93187;-83
2023/05/16 03:23:29;;;;;;;63.88;50.13;;;15.60;76.20;;;;;;4941803;28;89805;-83
2023/05/16 03:25:55;;;;;;;63.95;50.00;;;15.70;76.40;;;;;;4945221;28;89272;-83
2023/05/16 03:28:20;;;;;;;64.00;49.80;;;15.60;76.20;;;;;;4950990;28;89521;-86
2023/05/16 03:30:46;;;;;;;62.33;50.03;;;15.70;76.30;;;;;;4945020;28;92128;-83
2023/05/16 03:33:12;;;;;;;64.22;49.55;;;15.60;76.10;;;;;;4945022;28;93324;-84
2023/05/16 03:35:38;;;;;;;62.60;49.38;;;15.60;76.20;;;;;;4943848;28;90639;-82
2023/05/16 03:38:04;;;;;;;65.70;49.63;;;15.60;76.10;;;;;;4942442;28;89252;-82
2023/05/16 03:40:30;;;;;;;63.15;49.35;;;15.60;76.20;;;;;;4941318;28;95769;-83
2023/05/16 03:42:56;;;;;;;67.45;50.05;;;15.60;75.90;;;;;;4940384;28;93684;-84
2023/05/16 03:45:21;;;;;;;65.03;49.83;;;15.60;76.10;;;;;;4942912;28;89412;-85
2023/05/16 03:47:50;;;;;;;63.90;49.95;;;15.60;76.10;;;;;;4941006;28;89901;-86
2023/05/16 03:50:16;;;;;;;65.32;49.72;;;15.60;75.90;;;;;;4939883;28;92709;-82
2023/05/16 03:52:42;;;;;;;63.60;49.63;;;15.60;75.90;;;;;;4938374;28;92625;-82
2023/05/16 03:55:08;;;;;;;63.10;49.42;;;15.60;75.90;;;;;;4941866;28;90113;-85
2023/05/16 03:57:35;;;;;;;64.65;49.35;;;15.60;76.20;;;;;;4942731;28;89206;-82
2023/05/16 04:00:01;;;;;;;65.97;49.15;;;15.60;76.30;;;;;;4943573;28;92438;-83
2023/05/16 04:02:26;;;;;;;65.95;49.97;;;15.60;76.70;;;;;;4937843;28;92530;-83
2023/05/16 04:04:52;;;;;;;64.95;49.75;;;15.60;76.70;;;;;;4940658;28;90466;-84
2023/05/16 04:07:17;;;;;;;66.35;49.90;;;15.50;77.20;;;;;;4951884;28;89361;-86
2023/05/16 04:09:44;;;;;;;65.13;49.60;;;15.50;77.30;;;;;;4942798;28;93345;-87
2023/05/16 04:12:09;;;;;;;66.07;50.10;;;15.50;77.40;;;;;;4939296;28;94123;-84
2023/05/16 04:14:35;;;;;;;64.32;49.72;;;15.50;77.60;;;;;;4943314;28;89308;-86
2023/05/16 04:17:00;;;;;;;67.93;49.80;;;15.50;77.80;;;;;;4942666;28;90407;-82
2023/05/16 04:19:26;;;;;;;65.60;50.13;;;15.50;78.00;;;;;;4943836;28;93391;-82
2023/05/16 04:21:52;;;;;;;63.28;50.00;;;15.50;78.20;;;;;;4941413;28;92085;-83
2023/05/16 04:24:18;;;;;;;65.90;50.08;;;15.60;78.50;;;;;;4942408;28;90169;-83
2023/05/16 04:26:43;;;;;;;64.25;49.47;;;15.50;78.50;;;;;;4941365;28;89210;-83
2023/05/16 04:29:10;;;;;;;62.83;49.72;;;15.50;78.20;;;;;;4944996;28;90557;-83
2023/05/16 04:31:36;;;;;;;66.28;50.10;;;15.50;78.10;;;;;;4944674;28;93691;-83
2023/05/16 04:34:02;;;;;;;64.85;50.25;;;15.50;78.20;;;;;;4950444;28;89275;-84
2023/05/16 04:36:29;;;;;;;66.63;50.00;;;15.50;77.90;;;;;;4940271;28;89162;-84
2023/05/16 04:38:55;;;;;;;66.00;49.75;;;15.50;78.30;;;;;;4946744;28;89807;-83
2023/05/16 04:41:22;;;;;;;64.60;50.35;;;15.50;78.30;;;;;;4947640;28;92554;-84
2023/05/16 04:43:49;;;;;;;68.40;50.00;;;15.60;78.80;;;;;;4946445;28;89408;-84
2023/05/16 04:46:15;;;;;;;68.40;50.67;;;15.60;79.30;;;;;;4948568;28;88587;-83
2023/05/16 04:48:40;;;;;;;68.18;50.85;;;15.70;79.90;;;;;;4944665;28;94728;-82
2023/05/16 04:51:06;;;;;;;71.43;51.42;;;15.70;79.70;;;;;;4952336;28;92580;-82
2023/05/16 04:53:32;;;;;;;78.05;51.80;;;15.80;79.40;;;;;;4953612;28;90215;-82
2023/05/16 04:55:59;;;;;;;79.47;51.40;;;15.70;79.30;;;;;;4952359;28;90093;-82
2023/05/16 04:58:25;;;;;;;72.30;51.60;;;15.70;79.20;;;;;;4952552;28;90796;-83
2023/05/16 05:00:51;;;;;;;82.05;52.30;;;15.80;79.10;;;;;;4951134;28;93000;-82
2023/05/16 05:03:17;;;;;;;74.85;52.13;;;15.70;78.90;;;;;;4954845;28;88762;-82
2023/05/16 05:05:42;;;;;;;76.05;51.88;;;15.70;78.90;;;;;;4949452;28;90544;-83
2023/05/16 05:08:08;;;;;;;78.53;52.42;;;15.70;78.90;;;;;;4948824;28;89409;-81
2023/05/16 05:10:34;;;;;;;79.00;51.97;;;15.80;79.60;;;;;;4949908;28;91136;-81
2023/05/16 05:13:01;;;;;;;72.60;52.13;;;15.80;79.60;;;;;;4950260;28;88817;-84
2023/05/16 05:15:28;;;;;;;71.95;52.03;;;15.80;79.50;;;;;;4942598;28;89334;-84
2023/05/16 05:18:04;;;;;;;80.20;52.05;;;15.80;79.80;;;;;;4938758;28;91117;-86
2023/05/16 05:22:18;;;;;;;71.80;51.70;;;15.90;78.80;;;;;;5104522;27;82832;-53
2023/05/16 05:24:43;;;;;;;70.72;51.33;;;15.90;79.50;;;;;;5103270;27;84764;-56
2023/05/16 05:27:09;;;;;;;71.40;51.42;;;15.90;79.40;;;;;;5084111;27;91072;-53
2023/05/16 05:29:34;;;;;;;73.25;51.28;;;15.90;79.00;;;;;;5095394;27;85025;-56
2023/05/16 05:32:00;;;;;;;72.18;51.10;;;15.90;78.70;;;;;;5097582;27;85598;-50
2023/05/16 05:34:26;;;;;;;57.97;48.13;;;15.90;78.20;;;;;;5104503;27;85134;-62
2023/05/16 05:36:51;;;;;;;57.53;48.00;;;15.20;80.30;;;;;;5091245;27;85141;-65
2023/05/16 05:39:17;;;;;;;56.03;47.92;;;14.40;84.20;;;;;;5097028;27;85486;-59
2023/05/16 05:41:43;;;;;;;56.70;47.42;;;14.00;84.50;;;;;;5100392;27;86293;-59
2023/05/16 05:44:08;;;;;;;54.58;47.13;;;13.90;87.60;;;;;;5082346;27;85503;-59
2023/05/16 05:46:34;;;;;;;52.65;46.80;;;13.80;87.90;;;;;;5090087;27;84932;-63
2023/05/16 05:49:00;;;;;;;56.10;47.78;;;13.90;88.70;;;;;;5080944;27;84526;-63
2023/05/16 05:51:26;;;;;;;55.58;47.38;;;13.70;87.60;;;;;;5060942;27;85081;-57
2023/05/16 05:53:53;;;;;;;57.10;47.40;;;13.70;86.80;;;;;;5076320;27;84848;-58
2023/05/16 05:56:20;;;;;;;52.45;46.90;;;13.70;88.00;;;;;;5069995;27;85586;-61
2023/05/16 05:58:45;;;;;;;52.50;46.88;;;13.80;88.70;;;;;;5079121;27;90412;-53
2023/05/16 06:01:11;;;;;;;52.53;46.72;;;13.70;89.00;;;;;;5077940;27;87109;-60
2023/05/16 06:03:37;;;;;;;55.28;46.85;;;13.80;88.50;;;;;;5089084;27;84836;-60
2023/05/16 06:06:03;;;;;;;53.53;46.97;;;13.90;89.10;;;;;;5073544;27;84733;-66
2023/05/16 06:08:29;;;;;;;53.45;47.15;;;13.90;88.50;;;;;;5056955;27;90325;-63
2023/05/16 06:10:54;;;;;;;53.80;47.00;;;14.00;87.50;;;;;;5064021;27;85680;-57
2023/05/16 06:13:20;;;;;;;52.28;46.63;;;14.10;87.70;;;;;;5075308;27;85314;-63
2023/05/16 06:15:53;;;;;;;52.60;46.85;;;14.10;87.30;;;;;;5081962;27;85383;-61
2023/05/16 06:20:37;;;;;;;52.63;47.08;;;14.10;86.30;;;;;;5022036;27;81897;-59
2023/05/16 06:24:24;;;;;;;53.13;47.38;;;14.10;86.50;;;;;;4997258;28;82047;-56
2023/05/16 06:26:51;;;;;;;53.38;46.70;;;14.20;88.20;;;;;;4978566;28;84829;-48
2023/05/16 06:29:17;;;;;;;54.65;47.10;;;14.20;85.20;;;;;;4979001;28;85375;-55
2023/05/16 06:31:43;;;;;;;53.15;47.22;;;14.30;87.80;;;;;;4979907;28;86811;-46
2023/05/16 06:34:08;;;;;;;52.85;47.25;;;14.30;85.80;;;;;;4978381;28;85082;-55
2023/05/16 06:36:34;;;;;;;53.78;47.00;;;14.40;86.90;;;;;;4976337;28;85079;-49
2023/05/16 06:39:00;;;;;;;52.63;46.92;;;14.30;85.30;;;;;;4976121;28;85558;-59
2023/05/16 06:41:25;;;;;;;52.35;46.85;;;14.40;86.00;;;;;;4978025;28;84873;-52
2023/05/16 06:43:51;;;;;;;54.25;47.65;;;14.50;87.10;;;;;;4969630;28;84770;-60
2023/05/16 06:46:17;;;;;;;52.53;46.88;;;14.60;87.50;;;;;;4976582;28;85568;-66
2023/05/16 06:48:42;;;;;;;53.03;47.08;;;14.70;87.10;;;;;;4962880;28;85479;-48
2023/05/16 06:51:09;;;;;;;52.13;46.42;;;14.60;84.90;;;;;;4968439;28;85040;-50
2023/05/16 06:53:35;;;;;;;52.17;46.60;;;14.40;85.00;;;;;;4972824;28;85069;-51
2023/05/16 06:56:01;;;;;;;52.17;46.67;;;14.50;87.10;;;;;;4967719;28;85968;-50
2023/05/16 06:58:26;;;;;;;55.55;46.85;;;14.70;86.50;;;;;;4971657;28;85041;-60
2023/05/16 07:00:52;;;;;;;52.50;46.13;;;14.80;86.80;;;;;;4971873;28;85372;-48
2023/05/16 07:03:18;;;;;;;53.67;46.22;;;14.90;85.40;;;;;;4966439;28;85200;-51
2023/05/16 07:05:43;;;;;;;52.08;46.35;;;15.00;85.80;;;;;;4974100;28;84963;-50
2023/05/16 07:08:11;;;;;;;52.17;46.20;;;14.90;86.10;;;;;;4967590;28;85973;-51
2023/05/16 07:10:37;;;;;;;52.30;46.50;;;14.80;84.00;;;;;;4973964;27;85069;-48
2023/05/16 07:13:03;;;;;;;55.20;46.58;;;14.80;86.80;;;;;;4967578;28;85236;-59
2023/05/16 07:15:29;;;;;;;52.47;46.80;;;14.80;86.00;;;;;;4970703;28;85326;-49
2023/05/16 07:17:56;;;;;;;52.58;46.40;;;14.70;83.60;;;;;;4968011;28;85207;-49
2023/05/16 07:20:22;;;;;;;51.97;46.38;;;14.80;86.20;;;;;;4970423;28;85699;-53
2023/05/16 07:22:47;;;;;;;52.08;46.53;;;14.90;85.50;;;;;;4967623;28;85403;-49
2023/05/16 07:25:14;;;;;;;57.03;47.22;;;14.90;86.00;;;;;;4969093;28;86401;-46
2023/05/16 07:27:43;;;;;;;52.70;46.88;;;15.00;85.40;;;;;;4962761;28;85505;-57
2023/05/16 07:30:12;;;;;;;53.28;46.80;;;15.00;86.90;;;;;;4963843;28;86908;-57
2023/05/16 07:32:39;;;;;;;52.42;46.80;;;15.20;85.90;;;;;;4971069;28;85624;-65
2023/05/16 07:35:05;;;;;;;52.75;46.95;;;15.20;86.00;;;;;;4958590;28;85591;-53
2023/05/16 07:37:31;;;;;;;52.75;46.95;;;15.20;86.00;;;;;;4957427;28;84991;-59
2023/05/16 07:39:56;;;;;;;52.85;47.05;;;15.20;84.80;;;;;;4959810;28;85363;-66
2023/05/16 07:42:22;;;;;;;54.17;47.22;;;15.20;85.10;;;;;;4956729;28;85711;-65
2023/05/16 07:44:48;;;;;;;52.72;47.03;;;15.30;86.60;;;;;;4957328;28;86842;-64
2023/05/16 07:47:13;;;;;;;53.40;47.45;;;15.40;85.90;;;;;;4956664;28;85136;-64
2023/05/16 07:49:40;;;;;;;55.33;46.92;;;15.40;85.70;;;;;;4962367;28;84948;-64
2023/05/16 07:52:06;;;;;;;52.70;46.75;;;15.40;84.60;;;;;;4954258;28;84968;-56
2023/05/16 07:56:11;;;;;;;54.17;46.95;;;15.40;84.10;;;;;;4984186;28;84952;-62
2023/05/16 07:58:37;;;;;;;52.28;46.63;;;15.50;86.20;;;;;;4978106;28;85021;-63
2023/05/16 08:03:34;;;;;;;52.58;46.47;;;15.40;84.90;;;;;;4999574;28;82626;-68
2023/05/16 08:06:19;;;;;;;56.95;47.70;;;15.40;85.20;;;;;;4995466;28;81889;-61
2023/05/16 08:08:45;;;;;;;53.08;47.28;;;15.40;82.30;;;;;;4973729;28;84837;-64
2023/05/16 08:11:57;;;;;;;53.55;46.85;;;15.40;83.40;;;;;;4985249;28;82788;-64
2023/05/16 08:14:22;;;;;;;51.95;46.45;;;15.40;83.20;;;;;;4975945;28;85149;-56
2023/05/16 08:16:48;;;;;;;52.83;46.92;;;15.40;83.10;;;;;;4966436;28;85143;-61
2023/05/16 08:19:14;;;;;;;52.92;47.08;;;15.20;81.90;;;;;;4971474;28;84814;-62
2023/05/16 08:21:39;;;;;;;52.47;46.72;;;15.10;81.90;;;;;;4969581;28;87417;-59
2023/05/16 08:24:06;;;;;;;52.63;46.92;;;15.10;83.20;;;;;;4964805;28;84882;-58
2023/05/16 08:26:31;;;;;;;52.67;46.97;;;15.10;85.50;;;;;;4975670;28;85688;-58
2023/05/16 08:28:57;;;;;;;52.88;47.10;;;15.20;83.00;;;;;;4975165;28;85554;-59
2023/05/16 08:31:23;;;;;;;52.80;47.08;;;15.10;83.80;;;;;;4965477;28;85185;-61
2023/05/16 08:33:48;;;;;;;52.75;47.15;;;15.20;83.30;;;;;;4968853;28;85297;-61
2023/05/16 08:36:14;;;;;;;53.22;47.13;;;15.20;82.50;;;;;;4978722;28;85366;-64
2023/05/16 08:38:40;;;;;;;52.78;46.53;;;15.20;83.70;;;;;;4972615;28;84986;-56
2023/05/16 08:41:06;;;;;;;52.97;47.17;;;15.40;84.30;;;;;;4973862;28;84854;-48
2023/05/16 08:43:34;;;;;;;52.63;46.65;;;15.40;83.60;;;;;;4964747;28;85664;-55
2023/05/16 08:45:59;;;;;;;53.00;47.08;;;15.40;80.10;;;;;;4964663;28;84884;-49
2023/05/16 08:48:27;;;;;;;52.28;46.78;;;15.40;83.20;;;;;;4965530;28;85898;-54
2023/05/16 08:50:53;;;;;;;52.38;46.83;;;15.40;79.80;;;;;;4961883;28;87100;-52
2023/05/16 08:53:29;;;;;;;52.65;47.05;;;15.30;83.50;;;;;;4965618;28;85731;-49
2023/05/16 08:55:56;;;;;;;52.58;47.08;;;15.40;83.30;;;;;;4967154;28;85151;-55
2023/05/16 08:58:22;;;;;;;52.55;46.88;;;15.60;83.80;;;;;;4966238;28;85187;-59
2023/05/16 09:00:48;;;;;;;51.97;46.47;;;15.70;83.40;;;;;;4969189;28;85143;-46
2023/05/16 09:03:14;;;;;;;52.13;46.53;;;15.80;83.20;;;;;;4966559;28;86043;-58
2023/05/16 09:05:40;;;;;;;52.33;46.80;;;15.80;81.50;;;;;;4969293;28;86727;-44
2023/05/16 09:08:06;;;;;;;52.42;46.92;;;15.70;79.50;;;;;;4966526;28;85507;-48
2023/05/16 09:10:32;;;;;;;52.63;47.00;;;15.90;82.10;;;;;;4974982;28;85555;-46
2023/05/16 09:12:57;;;;;;;52.58;47.03;;;16.00;81.40;;;;;;4963828;28;85530;-41
2023/05/16 09:15:30;;;;;;;52.45;46.83;;;16.00;80.40;;;;;;4963540;28;85269;-42
2023/05/16 09:17:59;;;;;;;52.97;46.92;;;15.80;80.50;;;;;;4982805;22;84554;-77
2023/05/16 09:20:25;;;;;;;52.53;47.03;;;15.70;79.50;;;;;;4971625;28;90509;-75
2023/05/16 09:22:59;;;;;;;52.08;46.50;;;15.60;79.60;;;;;;4970999;28;85173;-75
2023/05/16 09:25:30;;;;;;;52.70;47.10;;;15.50;80.30;;;;;;4964006;28;86036;-73
2023/05/16 09:27:57;;;;;;;52.58;46.95;;;15.80;83.90;;;;;;4954359;28;85428;-75
2023/05/16 09:30:28;;;;;;;52.63;46.88;;;15.80;82.50;;;;;;4959748;28;85875;-74
2023/05/16 09:32:54;;;;;;;52.55;46.95;;;15.80;82.80;;;;;;4961987;28;88755;-74
2023/05/16 09:35:22;;;;;;;52.15;46.75;;;15.90;80.80;;;;;;4966228;28;85684;-74
2023/05/16 09:37:49;;;;;;;54.47;47.15;;;15.80;81.20;;;;;;4964497;28;85774;-74
2023/05/16 09:40:15;;;;;;;52.55;47.05;;;15.90;82.20;;;;;;4965009;28;85689;-73
2023/05/16 09:42:44;;;;;;;52.35;46.83;;;16.10;82.10;;;;;;4962249;28;85091;-73
2023/05/16 09:45:13;;;;;;;52.10;46.60;;;15.90;78.40;;;;;;4958536;28;85364;-73
2023/05/16 09:47:45;;;;;;;52.50;46.90;;;15.80;78.00;;;;;;4959178;28;86040;-71
2023/05/16 09:50:13;;;;;;;52.22;46.72;;;16.00;80.30;;;;;;4963637;28;85433;-74
2023/05/16 09:52:39;;;;;;;52.03;46.45;;;16.00;79.60;;;;;;4963691;28;84823;-75
2023/05/16 09:55:09;;;;;;;52.35;46.92;;;15.90;79.30;;;;;;4956627;28;86648;-74
2023/05/16 09:57:41;;;;;;;52.85;47.03;;;15.80;78.30;;;;;;4960977;28;85155;-75
2023/05/16 10:00:10;;;;;;;52.00;46.63;;;15.90;79.70;;;;;;4960708;28;85143;-75
2023/05/16 10:02:38;;;;;;;52.65;47.13;;;16.10;80.80;;;;;;4955918;28;87813;-73
2023/05/16 10:05:04;;;;;;;52.63;47.03;;;16.20;81.20;;;;;;4966928;28;85376;-71
2023/05/16 10:07:32;;;;;;;52.70;47.00;;;16.10;78.60;;;;;;4959883;28;89884;-73
2023/05/16 10:10:03;;;;;;;52.35;46.75;;;16.20;77.80;;;;;;4948253;28;85081;-72
2023/05/16 10:12:30;;;;;;;52.90;47.33;;;16.10;78.30;;;;;;4937332;28;86096;-73
2023/05/16 10:14:58;;;;;;;53.17;47.47;;;16.10;78.70;;;;;;4943587;28;85474;-74
2023/05/16 10:21:50;;;;;;;54.88;48.88;;;16.40;78.40;;;;;;4999209;28;83312;-61
2023/05/16 10:24:22;;;;;;;54.33;48.53;;;16.30;76.40;;;;;;4976359;28;85250;-56
2023/05/16 10:26:50;;;;;;;54.25;48.40;;;16.30;79.30;;;;;;4973385;28;87216;-56
2023/05/16 10:29:17;;;;;;;52.92;47.25;;;16.20;76.10;;;;;;4976838;28;85211;-57
2023/05/16 10:31:43;;;;;;;53.63;47.92;;;16.10;78.20;;;;;;4977779;28;85093;-56
2023/05/16 10:34:09;;;;;;;53.63;47.92;;;16.10;78.70;;;;;;4979726;28;85440;-56
2023/05/16 10:36:36;;;;;;;53.70;47.78;;;16.20;78.60;;;;;;4976296;28;86319;-54
2023/05/16 10:39:02;;;;;;;53.45;47.70;;;16.40;78.50;;;;;;4971698;28;86284;-57
2023/05/16 10:41:28;;;;;;;53.20;47.38;;;16.40;75.30;;;;;;4975956;28;85246;-52
2023/05/16 10:43:58;;;;;;;53.50;47.70;;;16.50;78.20;;;;;;4992971;28;85174;-58
2023/05/16 10:46:28;;;;;;;53.28;47.47;;;16.40;75.40;;;;;;4981814;28;85787;-57
2023/05/16 10:48:53;;;;;;;53.45;47.58;;;16.40;73.80;;;;;;4981220;28;85284;-56
2023/05/16 10:51:21;;;;;;;52.83;47.22;;;16.50;76.10;;;;;;4975225;28;84815;-51
2023/05/16 10:53:50;;;;;;;53.53;47.53;;;16.50;76.10;;;;;;4983183;28;85051;-56
2023/05/16 10:57:35;;;;;;;52.63;47.13;;;16.50;73.60;;;;;;4984400;28;83256;-67
2023/05/16 11:00:06;;;;;;;52.78;47.15;;;16.60;77.90;;;;;;4972396;28;86278;-62
2023/05/16 11:02:38;;;;;;;52.60;47.00;;;16.70;77.60;;;;;;4980646;28;85348;-61
2023/05/16 11:05:05;;;;;;;52.92;47.30;;;16.80;77.60;;;;;;4976999;28;85105;-65
2023/05/16 11:07:33;;;;;;;53.97;48.08;;;16.90;75.20;;;;;;4975887;28;85206;-54
2023/05/16 11:10:03;;;;;;;53.15;47.05;;;16.90;75.70;;;;;;4972123;27;92944;-62
2023/05/16 11:12:47;;;;;;;53.13;47.45;;;16.80;75.80;;;;;;4968201;28;85185;-57
2023/05/16 11:15:31;;;;;;;53.38;47.58;;;16.80;75.80;;;;;;4972898;28;86292;-60
2023/05/16 11:18:05;;;;;;;54.47;47.42;;;16.80;75.00;;;;;;4971190;28;87424;-60
2023/05/16 11:20:33;;;;;;;53.40;47.55;;;16.90;75.70;;;;;;4978437;28;85612;-59
2023/05/16 11:23:20;;;;;;;54.13;47.85;;;16.80;76.00;;;;;;4975871;28;85876;-62
2023/05/16 11:25:49;;;;;;;54.60;47.47;;;16.90;76.00;;;;;;4976273;28;84986;-61
2023/05/16 11:28:18;;;;;;;53.65;47.85;;;17.00;75.80;;;;;;4977956;28;84980;-64
2023/05/16 11:30:51;;;;;;;53.80;48.00;;;17.00;72.80;;;;;;4971816;28;85775;-58
2023/05/16 11:33:17;;;;;;;54.10;47.92;;;16.90;73.60;;;;;;4973753;28;86799;-68
2023/05/16 11:35:59;;;;;;;53.58;47.78;;;16.90;73.20;;;;;;4977602;28;84777;-63
2023/05/16 11:38:26;;;;;;;53.67;47.85;;;17.00;73.20;;;;;;4979336;28;85284;-52
2023/05/16 11:40:52;;;;;;;53.25;47.45;;;16.90;73.90;;;;;;4975503;28;85407;-46
2023/05/16 11:43:18;;;;;;;54.80;47.65;;;16.90;73.30;;;;;;4977279;28;84962;-52
2023/05/16 11:45:44;;;;;;;53.95;47.85;;;16.90;71.50;;;;;;4978023;28;85003;-55
2023/05/16 11:48:10;;;;;;;55.05;47.65;;;16.90;72.30;;;;;;4975828;28;85182;-54
2023/05/16 11:50:36;;;;;;;56.97;48.15;;;17.00;72.50;;;;;;4975675;28;85007;-56
2023/05/16 11:53:02;;;;;;;57.75;47.83;;;16.90;71.80;;;;;;4984574;22;87615;-74
2023/05/16 11:55:29;;;;;;;53.60;47.80;;;17.00;74.70;;;;;;4972696;28;85652;-73
2023/05/16 11:57:57;;;;;;;54.83;47.83;;;17.00;73.00;;;;;;4971938;28;88643;-73
2023/05/16 12:00:25;;;;;;;53.58;47.55;;;17.00;74.10;;;;;;4976919;28;85047;-74
2023/05/16 12:02:52;;;;;;;55.28;48.03;;;17.10;73.70;;;;;;4977691;28;85024;-74
2023/05/16 12:05:20;;;;;;;53.40;47.63;;;17.10;73.60;;;;;;4979112;28;85396;-75
2023/05/16 12:07:46;;;;;;;54.53;47.95;;;17.10;70.40;;;;;;4961903;28;91075;-75
2023/05/16 12:10:14;;;;;;;53.65;47.90;;;17.10;73.70;;;;;;4938638;28;85160;-74
2023/05/16 12:12:43;;;;;;;53.50;47.72;;;17.10;72.30;;;;;;4939229;28;85631;-77
2023/05/16 12:15:10;;;;;;;53.92;47.80;;;17.10;73.80;;;;;;4935300;28;85870;-76
2023/05/16 12:17:38;;;;;;;53.70;47.80;;;17.20;73.20;;;;;;4941861;28;85445;-77
2023/05/16 12:20:05;;;;;;;53.67;47.78;;;17.20;75.30;;;;;;4947475;28;84932;-76
2023/05/16 12:22:34;;;;;;;53.53;47.78;;;17.30;73.80;;;;;;4940147;28;85172;-75
2023/05/16 12:25:17;;;;;;;53.72;47.95;;;17.40;71.90;;;;;;4936666;28;85566;-73
2023/05/16 12:27:43;;;;;;;53.70;47.90;;;17.40;70.30;;;;;;4929448;28;85530;-74
2023/05/16 12:30:09;;;;;;;55.13;48.05;;;17.50;73.00;;;;;;4940881;28;87156;-74
2023/05/16 12:32:38;;;;;;;53.88;47.97;;;17.60;71.40;;;;;;4950254;28;85303;-74
2023/05/16 12:35:04;;;;;;;54.90;47.90;;;17.60;72.90;;;;;;4942317;28;84959;-76
2023/05/16 12:37:30;;;;;;;55.67;47.85;;;17.60;72.90;;;;;;4935771;28;86205;-73
2023/05/16 12:39:59;;;;;;;55.65;47.90;;;17.60;70.90;;;;;;4940257;28;85116;-72
2023/05/16 12:42:26;;;;;;;53.90;48.05;;;17.50;72.20;;;;;;4940940;28;85353;-73
2023/05/16 12:44:55;;;;;;;53.78;47.97;;;17.60;73.00;;;;;;4946511;28;85060;-73